MSC Fabiola — A8VL5 — position and weather

sailwx.info

Track history (hours):
 
Tides and Currents Weather Stations Pressure Air Temp Water Temp Dewpoint Dewpoint Depression Visibility Wind Speed Wind Dir Waves Ship Positions

MSC Fabiola

Last reported at 2014-Nov-12 11:33 UTC. Time now 2014-Nov-22 21:35 UTC.
Position N 32°00' E 031°18'.
Warning: this ship's position is 10 days out of date.

Length 366 m; draft 15 m.

Type: Ship (hazmat cat C). MMSI: 636092019.

Date/timePositionNaut miles runAvg speedWind from/ knotsBaromVisibWave heightAir tempDewpointWater temp
2014-Nov-12 11:33N 32°00' E 031°18'3815.5
2014-Nov-12 09:06N 32°15' E 030°37'  
2014-Nov-10 01:26N 38°19' E 015°42'  
2014-Nov-07 20:28N 38°21' E 013°52'1516.7
2014-Nov-07 19:33N 38°22' E 013°32'1716.8
2014-Nov-07 18:31N 38°21' E 013°10'1716.9
2014-Nov-07 17:31N 38°19' E 012°49'87217.0
2014-Nov-05 14:06N 36°01' W 005°12'1120.0
2014-Nov-05 13:33N 35°58' W 005°24'23415.1
2014-Nov-04 22:04N 37°37' W 009°49'1017.6
2014-Nov-04 21:30N 37°47' W 009°52'1817.3
2014-Nov-04 20:26N 38°05' W 009°57'77716.9
2014-Nov-02 22:30N 50°01' W 002°54'11017.5
2014-Nov-02 16:13N 50°30' W 000°08'1015.6
2014-Nov-02 15:33N 50°32' E 000°08'1615.8
2014-Nov-02 14:34N 50°36' E 000°32'1716.7
2014-Nov-02 13:34N 50°45' E 000°54'1717.2
2014-Nov-02 12:33N 50°55' E 001°17'1616.3
2014-Nov-02 11:34N 51°07' E 001°34'  
Track history (hours):
 
Tides and Currents Weather Stations Pressure Air Temp Water Temp Dewpoint Dewpoint Depression Visibility Wind Speed Wind Dir Waves Ship Positions

MSC Fabiola

Last reported at 2014-Nov-12 11:33 UTC. Time now 2014-Nov-22 21:35 UTC.
Position N 32°00' E 031°18'.
Warning: this ship's position is 10 days out of date.

Length 366 m; draft 15 m.

Type: Ship (hazmat cat C). MMSI: 636092019.

Date/timePositionNaut miles runAvg speedWind from/ knotsBaromVisibWave heightAir tempDewpointWater temp
2014-Nov-12 11:33N 32°00' E 031°18'3815.5
2014-Nov-12 09:06N 32°15' E 030°37'  
2014-Nov-10 01:26N 38°19' E 015°42'  
2014-Nov-07 20:28N 38°21' E 013°52'1516.7
2014-Nov-07 19:33N 38°22' E 013°32'1716.8
2014-Nov-07 18:31N 38°21' E 013°10'1716.9
2014-Nov-07 17:31N 38°19' E 012°49'87217.0
2014-Nov-05 14:06N 36°01' W 005°12'1120.0
2014-Nov-05 13:33N 35°58' W 005°24'23415.1
2014-Nov-04 22:04N 37°37' W 009°49'1017.6
2014-Nov-04 21:30N 37°47' W 009°52'1817.3
2014-Nov-04 20:26N 38°05' W 009°57'77716.9
2014-Nov-02 22:30N 50°01' W 002°54'11017.5
2014-Nov-02 16:13N 50°30' W 000°08'1015.6
2014-Nov-02 15:33N 50°32' E 000°08'1615.8
2014-Nov-02 14:34N 50°36' E 000°32'1716.7
2014-Nov-02 13:34N 50°45' E 000°54'1717.2
2014-Nov-02 12:33N 50°55' E 001°17'1616.3
2014-Nov-02 11:34N 51°07' E 001°34'  

Dump ship's entire track history